Suedburg, Pennsylvania
Current Conditions -  °F | °C
As of 8:58 AM on Friday 28 Nov 2014 (Local Time) from KMUI Reporting Station
Broken Clouds Broken Clouds  
Wind Chill: 25°   Ceiling: 6500
Heat Index: 31°   Visibility: 10mi
Dew Point: 18°   Wind: 6mph
Humidity: 57%   Direction: 280°W
Pressure: 30.24"   Gusts: NA
Location:  40.5592°N, 76.3347°W
Report Text: KMUI 281358Z AUTO 28005KT 10SM BKN065 00/M08 A3024 RMK AO2 SLP249 T10051080 $
Loading
Personal Weather Stations






























Interactive Weather Map New forecast layout! Learn more

10-Day Weather Forecast

Advertisements
Track Severe Weather on mobile